createdAt,value
2023-04-10T00:03:12.807Z,7.82
2023-04-10T00:08:19.081Z,7.77
2023-04-10T00:13:25.169Z,7.70
2023-04-10T00:18:26.824Z,7.64
2023-04-10T00:23:34.738Z,7.61
2023-04-10T00:28:38.158Z,7.57
2023-04-10T00:33:44.358Z,7.59
2023-04-10T00:38:48.753Z,7.66
2023-04-10T00:43:56.931Z,7.73
2023-04-10T00:48:58.681Z,7.77
2023-04-10T00:54:03.548Z,7.78
2023-04-10T00:59:07.138Z,7.77
2023-04-10T01:04:11.778Z,7.77
2023-04-10T01:09:32.095Z,7.74
2023-04-10T01:15:28.278Z,7.70
2023-04-10T01:20:36.161Z,7.62
2023-04-10T01:25:44.995Z,7.61
2023-04-10T01:30:51.377Z,7.58
2023-04-10T01:35:56.493Z,7.57
2023-04-10T01:41:02.070Z,7.58
2023-04-10T01:46:05.384Z,7.57
2023-04-10T01:51:10.396Z,7.56
2023-04-10T01:56:12.823Z,7.51
2023-04-10T02:01:29.006Z,7.44
2023-04-10T02:06:46.096Z,7.35
2023-04-10T02:12:02.528Z,7.22
2023-04-10T02:17:07.163Z,7.08
2023-04-10T02:22:12.054Z,6.96
2023-04-10T02:27:13.736Z,6.89
2023-04-10T02:32:17.362Z,6.79
2023-04-10T02:37:23.726Z,6.69
2023-04-10T02:42:28.132Z,6.64
2023-04-10T02:47:33.554Z,6.61
2023-04-10T02:52:38.174Z,6.65
2023-04-10T02:57:40.994Z,6.66
2023-04-10T03:02:46.094Z,6.77
2023-04-10T03:07:53.989Z,6.73
2023-04-10T03:12:59.512Z,6.75
2023-04-10T03:18:01.324Z,6.76
2023-04-10T03:23:04.766Z,6.70
2023-04-10T03:28:06.535Z,6.66
2023-04-10T03:33:08.472Z,6.64
2023-04-10T03:38:12.755Z,6.63
2023-04-10T03:43:14.529Z,6.58
2023-04-10T03:48:20.891Z,6.53
2023-04-10T03:53:23.374Z,6.50
2023-04-10T03:58:29.658Z,6.45
2023-04-10T04:03:31.938Z,6.40
2023-04-10T04:08:36.334Z,6.42
2023-04-10T04:13:49.326Z,6.40
2023-04-10T04:19:09.467Z,6.32
2023-04-10T04:24:20.392Z,6.29
2023-04-10T04:29:36.100Z,6.27
2023-04-10T04:35:03.682Z,6.23
2023-04-10T04:40:26.948Z,6.23
2023-04-10T04:45:38.235Z,6.21
2023-04-10T04:50:43.601Z,6.15
2023-04-10T04:55:56.906Z,6.15
2023-04-10T05:01:27.898Z,6.10
2023-04-10T05:06:45.628Z,6.11
2023-04-10T05:12:06.036Z,6.19
2023-04-10T05:17:26.654Z,6.27
2023-04-10T05:22:40.592Z,6.35
2023-04-10T05:27:51.168Z,6.38
2023-04-10T05:33:15.090Z,6.50
2023-04-10T05:38:35.805Z,6.68
2023-04-10T05:43:48.513Z,6.81
2023-04-10T05:49:04.437Z,6.85
2023-04-10T05:54:38.006Z,6.92
2023-04-10T06:00:02.101Z,7.08
2023-04-10T06:05:16.030Z,7.16
2023-04-10T06:10:21.211Z,7.23
2023-04-10T06:15:29.474Z,7.29
2023-04-10T06:20:32.332Z,7.41
2023-04-10T06:25:36.520Z,7.51
2023-04-10T06:30:43.505Z,7.62
2023-04-10T06:35:45.603Z,7.74
2023-04-10T06:40:47.814Z,7.79
2023-04-10T06:45:49.609Z,7.88
2023-04-10T06:50:51.278Z,7.99
2023-04-10T06:55:55.466Z,8.04
2023-04-10T07:00:57.952Z,8.03
2023-04-10T07:06:03.463Z,8.10
2023-04-10T07:11:07.569Z,8.23
2023-04-10T07:16:12.502Z,8.31
2023-04-10T07:21:14.273Z,8.75
2023-04-10T07:26:16.501Z,8.94
2023-04-10T07:31:21.060Z,9.03
2023-04-10T07:36:27.043Z,9.19
2023-04-10T07:41:28.816Z,9.40
2023-04-10T07:46:30.514Z,9.57
2023-04-10T07:51:34.626Z,9.73
2023-04-10T07:56:36.391Z,10.02
2023-04-10T08:01:38.128Z,10.26
2023-04-10T08:06:39.869Z,10.54
2023-04-10T08:11:41.579Z,10.83
2023-04-10T08:16:43.304Z,11.14
2023-04-10T08:21:45.051Z,11.52
2023-04-10T08:26:49.669Z,11.66
2023-04-10T08:31:54.553Z,11.84
2023-04-10T08:36:59.625Z,11.97
2023-04-10T08:42:02.498Z,12.05
2023-04-10T08:47:05.974Z,12.24
2023-04-10T08:52:14.778Z,12.48
2023-04-10T08:57:20.904Z,12.68
2023-04-10T09:02:25.340Z,12.94
2023-04-10T09:07:29.756Z,13.30
2023-04-10T09:12:43.621Z,13.58
2023-04-10T09:17:55.616Z,13.97
2023-04-10T09:22:59.713Z,14.38
2023-04-10T09:28:09.730Z,14.61
2023-04-10T09:33:27.910Z,14.86
2023-04-10T09:38:36.741Z,15.04
2023-04-10T09:43:39.136Z,15.14
2023-04-10T09:48:55.001Z,15.30
2023-04-10T09:54:01.393Z,15.43
2023-04-10T09:59:04.858Z,15.61
2023-04-10T10:04:08.112Z,15.86
2023-04-10T10:09:09.921Z,16.20
2023-04-10T10:14:15.668Z,16.57
2023-04-10T10:19:31.538Z,16.58
2023-04-10T10:24:36.913Z,16.57
2023-04-10T10:29:41.172Z,16.57
2023-04-10T10:34:43.205Z,16.57
2023-04-10T10:39:57.175Z,16.92
2023-04-10T10:45:10.851Z,16.98
2023-04-10T10:50:14.805Z,17.05
2023-04-10T10:55:22.434Z,17.07
2023-04-10T11:00:26.026Z,17.12
2023-04-10T11:05:48.793Z,17.15
2023-04-10T11:11:03.658Z,17.31
2023-04-10T11:16:07.193Z,17.22
2023-04-10T11:21:10.715Z,17.01
2023-04-10T11:26:12.514Z,17.04
2023-04-10T11:31:22.080Z,17.16
2023-04-10T11:36:24.365Z,17.38
2023-04-10T11:41:34.277Z,17.69
2023-04-10T11:46:40.575Z,17.76
2023-04-10T11:51:46.384Z,18.18
2023-04-10T11:57:06.338Z,18.72
2023-04-10T12:02:15.261Z,18.67
2023-04-10T12:07:17.245Z,18.74
2023-04-10T12:12:20.589Z,18.97
2023-04-10T12:17:27.266Z,19.10
2023-04-10T12:22:29.058Z,19.22
2023-04-10T12:27:33.185Z,18.87
2023-04-10T12:32:37.170Z,18.56
2023-04-10T12:37:52.470Z,18.32
2023-04-10T12:42:54.253Z,18.61
2023-04-10T12:47:56.426Z,19.02
2023-04-10T12:53:09.426Z,19.73
2023-04-10T12:58:20.649Z,19.70
2023-04-10T13:03:27.663Z,19.56
2023-04-10T13:08:32.575Z,19.54
2023-04-10T13:13:36.878Z,19.47
2023-04-10T13:18:38.949Z,19.45
2023-04-10T13:23:47.010Z,19.45
2023-04-10T13:28:51.042Z,19.24
2023-04-10T13:33:55.944Z,19.15
2023-04-10T13:38:59.867Z,19.27
2023-04-10T13:44:04.260Z,19.54
2023-04-10T13:49:06.124Z,19.83
2023-04-10T13:54:12.313Z,20.50
2023-04-10T13:59:16.730Z,20.60
2023-04-10T14:04:18.997Z,20.36
2023-04-10T14:09:20.732Z,20.33
2023-04-10T14:14:25.293Z,20.34
2023-04-10T14:19:29.424Z,19.75
2023-04-10T14:24:31.126Z,19.20
2023-04-10T14:29:40.573Z,19.72
2023-04-10T14:34:46.910Z,19.90
2023-04-10T14:39:48.724Z,20.06
2023-04-10T14:44:53.419Z,19.81
2023-04-10T14:50:00.182Z,19.44
2023-04-10T14:55:02.215Z,18.91
2023-04-10T15:00:04.673Z,18.35
2023-04-10T15:05:07.027Z,18.13
2023-04-10T15:10:10.648Z,18.07
2023-04-10T15:15:17.654Z,17.82
2023-04-10T15:20:31.443Z,17.66
2023-04-10T15:25:33.995Z,17.48
2023-04-10T15:30:35.932Z,17.26
2023-04-10T15:35:37.789Z,17.12
2023-04-10T15:40:39.664Z,16.98
2023-04-10T15:45:41.598Z,16.91
2023-04-10T15:50:43.493Z,16.87
2023-04-10T15:55:45.209Z,16.86
2023-04-10T16:00:47.345Z,16.73
2023-04-10T16:05:53.581Z,16.63
2023-04-10T16:10:56.167Z,16.56
2023-04-10T16:15:57.970Z,16.63
2023-04-10T16:21:03.075Z,16.46
2023-04-10T16:26:05.332Z,16.71
2023-04-10T16:31:07.326Z,16.63
2023-04-10T16:36:16.704Z,16.53
2023-04-10T16:41:20.993Z,16.40
2023-04-10T16:46:22.926Z,16.30
2023-04-10T16:51:27.555Z,16.30
2023-04-10T16:56:31.624Z,16.17
2023-04-10T17:01:39.596Z,16.13
2023-04-10T17:06:41.384Z,16.25
2023-04-10T17:11:47.663Z,15.51
2023-04-10T17:16:49.899Z,14.60
2023-04-10T17:21:56.430Z,14.73
2023-04-10T17:27:02.989Z,14.69
2023-04-10T17:32:06.328Z,14.49
2023-04-10T17:37:10.564Z,14.54
2023-04-10T17:42:14.646Z,14.81
2023-04-10T17:47:18.877Z,14.66
2023-04-10T17:52:22.994Z,14.68
2023-04-10T17:57:25.310Z,14.90
2023-04-10T18:02:31.989Z,15.00
2023-04-10T18:07:36.104Z,14.86
2023-04-10T18:12:40.553Z,14.97
2023-04-10T18:17:42.312Z,14.89
2023-04-10T18:22:44.416Z,14.89
2023-04-10T18:28:04.586Z,14.80
2023-04-10T18:33:19.458Z,14.61
2023-04-10T18:38:26.144Z,14.18
2023-04-10T18:43:30.438Z,13.99
2023-04-10T18:48:34.683Z,13.81
2023-04-10T18:53:41.363Z,13.57
2023-04-10T18:58:43.038Z,13.37
2023-04-10T19:03:52.402Z,13.17
2023-04-10T19:08:55.907Z,12.91
2023-04-10T19:14:00.877Z,12.54
2023-04-10T19:19:02.736Z,12.09
2023-04-10T19:24:04.700Z,11.83
2023-04-10T19:29:08.816Z,11.66
2023-04-10T19:34:13.634Z,11.48
2023-04-10T19:39:18.261Z,11.27
2023-04-10T19:44:20.266Z,11.17
2023-04-10T19:49:22.013Z,11.13
2023-04-10T19:54:26.249Z,11.33
2023-04-10T19:59:28.792Z,11.40
2023-04-10T20:04:33.136Z,11.45
2023-04-10T20:09:34.973Z,10.87
2023-04-10T20:14:38.395Z,10.68
2023-04-10T20:19:40.553Z,10.51
2023-04-10T20:24:42.275Z,10.39
2023-04-10T20:29:44.039Z,10.25
2023-04-10T20:34:48.875Z,10.22
2023-04-10T20:39:53.608Z,10.16
2023-04-10T20:44:55.485Z,10.10
2023-04-10T20:49:57.205Z,10.09
2023-04-10T20:54:58.958Z,10.10
2023-04-10T21:00:03.290Z,10.11
2023-04-10T21:05:07.571Z,10.11
2023-04-10T21:10:09.369Z,10.09
2023-04-10T21:15:15.775Z,10.09
2023-04-10T21:20:22.195Z,10.09
2023-04-10T21:25:23.933Z,10.09
2023-04-10T21:30:25.664Z,10.13
2023-04-10T21:35:29.780Z,10.13
2023-04-10T21:40:34.363Z,10.16
2023-04-10T21:45:37.472Z,10.19
2023-04-10T21:50:39.781Z,10.22
2023-04-10T21:55:43.727Z,10.23
2023-04-10T22:00:47.261Z,10.19
2023-04-10T22:05:54.527Z,10.15
2023-04-10T22:10:56.271Z,10.09
2023-04-10T22:16:02.211Z,10.08
2023-04-10T22:21:11.314Z,10.07
2023-04-10T22:26:13.072Z,10.10
2023-04-10T22:31:18.246Z,10.11
2023-04-10T22:36:22.531Z,10.14
2023-04-10T22:41:29.562Z,10.16
2023-04-10T22:46:33.551Z,10.19
2023-04-10T22:51:35.314Z,10.19
2023-04-10T22:56:39.869Z,10.16
2023-04-10T23:01:41.675Z,10.17
2023-04-10T23:06:43.443Z,10.19
2023-04-10T23:11:46.140Z,10.15
2023-04-10T23:16:52.577Z,10.10
2023-04-10T23:21:59.089Z,10.13
2023-04-10T23:27:00.774Z,10.08
2023-04-10T23:32:04.949Z,10.00
2023-04-10T23:37:06.622Z,9.90
2023-04-10T23:42:08.277Z,9.78
2023-04-10T23:47:12.517Z,9.78
2023-04-10T23:52:14.166Z,9.76
2023-04-10T23:57:15.848Z,9.67
